sensor_id;sensor_type;location;lat;lon;timestamp;P1;durP1;ratioP1;P2;durP2;ratioP2
73296;SDS011;61524;50.938;11.396;2023-11-19T00:00:08;1.95;;;0.60;;
73296;SDS011;61524;50.938;11.396;2023-11-19T00:02:37;1.05;;;0.38;;
73296;SDS011;61524;50.938;11.396;2023-11-19T00:05:03;1.05;;;0.55;;
73296;SDS011;61524;50.938;11.396;2023-11-19T00:07:28;1.65;;;0.75;;
73296;SDS011;61524;50.938;11.396;2023-11-19T00:09:53;0.73;;;0.40;;
73296;SDS011;61524;50.938;11.396;2023-11-19T00:12:20;0.63;;;0.63;;
73296;SDS011;61524;50.938;11.396;2023-11-19T00:14:45;0.60;;;0.40;;
73296;SDS011;61524;50.938;11.396;2023-11-19T00:17:11;0.73;;;0.43;;
73296;SDS011;61524;50.938;11.396;2023-11-19T00:19:36;0.90;;;0.50;;
73296;SDS011;61524;50.938;11.396;2023-11-19T00:22:01;0.95;;;0.40;;
73296;SDS011;61524;50.938;11.396;2023-11-19T00:24:28;0.77;;;0.40;;
73296;SDS011;61524;50.938;11.396;2023-11-19T00:26:53;1.02;;;0.47;;
73296;SDS011;61524;50.938;11.396;2023-11-19T00:29:18;0.47;;;0.27;;
73296;SDS011;61524;50.938;11.396;2023-11-19T00:31:45;0.95;;;0.40;;
73296;SDS011;61524;50.938;11.396;2023-11-19T00:34:10;1.27;;;0.57;;
73296;SDS011;61524;50.938;11.396;2023-11-19T00:36:35;0.33;;;0.33;;
73296;SDS011;61524;50.938;11.396;2023-11-19T00:39:01;0.20;;;0.20;;
73296;SDS011;61524;50.938;11.396;2023-11-19T00:41:26;0.55;;;0.40;;
73296;SDS011;61524;50.938;11.396;2023-11-19T00:43:51;0.40;;;0.32;;
73296;SDS011;61524;50.938;11.396;2023-11-19T00:46:17;1.27;;;0.30;;
73296;SDS011;61524;50.938;11.396;2023-11-19T00:48:42;0.68;;;0.45;;
73296;SDS011;61524;50.938;11.396;2023-11-19T00:51:07;0.20;;;0.20;;
73296;SDS011;61524;50.938;11.396;2023-11-19T00:53:33;0.63;;;0.33;;
73296;SDS011;61524;50.938;11.396;2023-11-19T00:55:59;0.82;;;0.43;;
73296;SDS011;61524;50.938;11.396;2023-11-19T00:58:24;0.85;;;0.50;;
73296;SDS011;61524;50.938;11.396;2023-11-19T01:00:49;0.30;;;0.23;;
73296;SDS011;61524;50.938;11.396;2023-11-19T01:03:14;0.73;;;0.40;;
73296;SDS011;61524;50.938;11.396;2023-11-19T01:05:41;0.40;;;0.40;;
73296;SDS011;61524;50.938;11.396;2023-11-19T01:08:06;0.28;;;0.28;;
73296;SDS011;61524;50.938;11.396;2023-11-19T01:10:32;0.75;;;0.50;;
73296;SDS011;61524;50.938;11.396;2023-11-19T01:12:57;0.52;;;0.35;;
73296;SDS011;61524;50.938;11.396;2023-11-19T01:15:22;1.58;;;0.40;;
73296;SDS011;61524;50.938;11.396;2023-11-19T01:17:48;0.45;;;0.30;;
73296;SDS011;61524;50.938;11.396;2023-11-19T01:20:13;0.50;;;0.40;;
73296;SDS011;61524;50.938;11.396;2023-11-19T01:22:39;0.88;;;0.50;;
73296;SDS011;61524;50.938;11.396;2023-11-19T01:25:05;1.42;;;0.30;;
73296;SDS011;61524;50.938;11.396;2023-11-19T01:27:30;1.02;;;0.30;;
73296;SDS011;61524;50.938;11.396;2023-11-19T01:29:55;0.47;;;0.38;;
73296;SDS011;61524;50.938;11.396;2023-11-19T01:32:21;0.73;;;0.50;;
73296;SDS011;61524;50.938;11.396;2023-11-19T01:34:46;0.30;;;0.30;;
73296;SDS011;61524;50.938;11.396;2023-11-19T01:37:11;0.40;;;0.40;;
73296;SDS011;61524;50.938;11.396;2023-11-19T01:39:37;0.17;;;0.15;;
73296;SDS011;61524;50.938;11.396;2023-11-19T01:42:03;0.30;;;0.30;;
73296;SDS011;61524;50.938;11.396;2023-11-19T01:44:28;0.60;;;0.35;;
73296;SDS011;61524;50.938;11.396;2023-11-19T01:46:53;0.57;;;0.40;;
73296;SDS011;61524;50.938;11.396;2023-11-19T01:49:19;0.70;;;0.43;;
73296;SDS011;61524;50.938;11.396;2023-11-19T01:51:45;0.57;;;0.50;;
73296;SDS011;61524;50.938;11.396;2023-11-19T01:54:10;0.50;;;0.40;;
73296;SDS011;61524;50.938;11.396;2023-11-19T01:56:37;0.30;;;0.30;;
73296;SDS011;61524;50.938;11.396;2023-11-19T01:59:05;0.47;;;0.40;;
73296;SDS011;61524;50.938;11.396;2023-11-19T02:01:32;0.47;;;0.45;;
73296;SDS011;61524;50.938;11.396;2023-11-19T02:03:59;0.20;;;0.20;;
73296;SDS011;61524;50.938;11.396;2023-11-19T02:06:26;0.95;;;0.68;;
73296;SDS011;61524;50.938;11.396;2023-11-19T02:08:52;0.85;;;0.50;;
73296;SDS011;61524;50.938;11.396;2023-11-19T02:11:17;1.13;;;0.57;;
73296;SDS011;61524;50.938;11.396;2023-11-19T02:13:42;0.40;;;0.30;;
73296;SDS011;61524;50.938;11.396;2023-11-19T02:16:08;0.82;;;0.50;;
73296;SDS011;61524;50.938;11.396;2023-11-19T02:18:36;0.70;;;0.50;;
73296;SDS011;61524;50.938;11.396;2023-11-19T02:21:01;0.50;;;0.40;;
73296;SDS011;61524;50.938;11.396;2023-11-19T02:23:27;0.40;;;0.40;;
73296;SDS011;61524;50.938;11.396;2023-11-19T02:28:22;1.02;;;0.38;;
73296;SDS011;61524;50.938;11.396;2023-11-19T02:30:48;0.50;;;0.40;;
73296;SDS011;61524;50.938;11.396;2023-11-19T02:33:13;0.37;;;0.37;;
73296;SDS011;61524;50.938;11.396;2023-11-19T02:35:40;0.35;;;0.30;;
73296;SDS011;61524;50.938;11.396;2023-11-19T02:38:06;1.85;;;0.40;;
73296;SDS011;61524;50.938;11.396;2023-11-19T02:40:31;0.75;;;0.68;;
73296;SDS011;61524;50.938;11.396;2023-11-19T02:42:57;0.63;;;0.43;;
73296;SDS011;61524;50.938;11.396;2023-11-19T02:45:23;0.73;;;0.45;;
73296;SDS011;61524;50.938;11.396;2023-11-19T02:47:48;1.17;;;0.40;;
73296;SDS011;61524;50.938;11.396;2023-11-19T02:50:13;0.73;;;0.35;;
73296;SDS011;61524;50.938;11.396;2023-11-19T02:52:42;0.20;;;0.20;;
73296;SDS011;61524;50.938;11.396;2023-11-19T02:55:11;0.25;;;0.25;;
73296;SDS011;61524;50.938;11.396;2023-11-19T02:57:40;0.40;;;0.35;;
73296;SDS011;61524;50.938;11.396;2023-11-19T03:00:17;0.73;;;0.43;;
73296;SDS011;61524;50.938;11.396;2023-11-19T03:02:42;0.82;;;0.50;;
73296;SDS011;61524;50.938;11.396;2023-11-19T03:05:14;0.20;;;0.20;;
73296;SDS011;61524;50.938;11.396;2023-11-19T03:07:40;0.80;;;0.35;;
73296;SDS011;61524;50.938;11.396;2023-11-19T03:10:07;0.40;;;0.40;;
73296;SDS011;61524;50.938;11.396;2023-11-19T03:12:34;0.45;;;0.43;;
73296;SDS011;61524;50.938;11.396;2023-11-19T03:14:59;0.40;;;0.40;;
73296;SDS011;61524;50.938;11.396;2023-11-19T03:17:24;0.40;;;0.30;;
73296;SDS011;61524;50.938;11.396;2023-11-19T03:19:50;0.73;;;0.40;;
73296;SDS011;61524;50.938;11.396;2023-11-19T03:22:15;0.10;;;0.10;;
73296;SDS011;61524;50.938;11.396;2023-11-19T03:24:40;0.40;;;0.30;;
73296;SDS011;61524;50.938;11.396;2023-11-19T03:27:06;0.38;;;0.25;;
73296;SDS011;61524;50.938;11.396;2023-11-19T03:29:31;0.93;;;0.47;;
73296;SDS011;61524;50.938;11.396;2023-11-19T03:31:57;0.47;;;0.30;;
73296;SDS011;61524;50.938;11.396;2023-11-19T03:34:22;0.13;;;0.13;;
73296;SDS011;61524;50.938;11.396;2023-11-19T03:36:47;0.40;;;0.30;;
73296;SDS011;61524;50.938;11.396;2023-11-19T03:39:14;0.40;;;0.30;;
73296;SDS011;61524;50.938;11.396;2023-11-19T03:41:39;0.45;;;0.25;;
73296;SDS011;61524;50.938;11.396;2023-11-19T03:44:04;0.23;;;0.20;;
73296;SDS011;61524;50.938;11.396;2023-11-19T03:46:30;0.60;;;0.30;;
73296;SDS011;61524;50.938;11.396;2023-11-19T03:48:55;0.60;;;0.40;;
73296;SDS011;61524;50.938;11.396;2023-11-19T03:51:21;0.30;;;0.20;;
73296;SDS011;61524;50.938;11.396;2023-11-19T03:53:46;0.20;;;0.10;;
73296;SDS011;61524;50.938;11.396;2023-11-19T03:56:11;0.30;;;0.30;;
73296;SDS011;61524;50.938;11.396;2023-11-19T03:58:37;0.57;;;0.30;;
73296;SDS011;61524;50.938;11.396;2023-11-19T04:01:03;0.60;;;0.32;;
73296;SDS011;61524;50.938;11.396;2023-11-19T04:03:29;0.20;;;0.20;;
73296;SDS011;61524;50.938;11.396;2023-11-19T04:05:54;0.87;;;0.20;;
73296;SDS011;61524;50.938;11.396;2023-11-19T04:08:19;0.20;;;0.20;;
73296;SDS011;61524;50.938;11.396;2023-11-19T04:10:44;0.27;;;0.20;;
73296;SDS011;61524;50.938;11.396;2023-11-19T04:13:10;0.30;;;0.20;;
73296;SDS011;61524;50.938;11.396;2023-11-19T04:15:35;0.15;;;0.10;;
73296;SDS011;61524;50.938;11.396;2023-11-19T04:18:01;0.75;;;0.52;;
73296;SDS011;61524;50.938;11.396;2023-11-19T04:20:26;0.40;;;0.20;;
73296;SDS011;61524;50.938;11.396;2023-11-19T04:22:51;0.20;;;0.20;;
73296;SDS011;61524;50.938;11.396;2023-11-19T04:25:17;0.20;;;0.20;;
73296;SDS011;61524;50.938;11.396;2023-11-19T04:27:44;0.13;;;0.13;;
73296;SDS011;61524;50.938;11.396;2023-11-19T04:30:09;0.20;;;0.20;;
73296;SDS011;61524;50.938;11.396;2023-11-19T04:32:36;0.55;;;0.17;;
73296;SDS011;61524;50.938;11.396;2023-11-19T04:35:01;0.45;;;0.30;;
73296;SDS011;61524;50.938;11.396;2023-11-19T04:37:26;0.50;;;0.50;;
73296;SDS011;61524;50.938;11.396;2023-11-19T04:39:51;0.23;;;0.23;;
73296;SDS011;61524;50.938;11.396;2023-11-19T04:42:17;0.43;;;0.20;;
73296;SDS011;61524;50.938;11.396;2023-11-19T04:44:42;1.10;;;0.30;;
73296;SDS011;61524;50.938;11.396;2023-11-19T04:47:08;0.28;;;0.20;;
73296;SDS011;61524;50.938;11.396;2023-11-19T04:49:33;0.50;;;0.30;;
73296;SDS011;61524;50.938;11.396;2023-11-19T04:51:58;0.93;;;0.20;;
73296;SDS011;61524;50.938;11.396;2023-11-19T04:54:24;1.42;;;0.32;;
73296;SDS011;61524;50.938;11.396;2023-11-19T04:56:49;0.90;;;0.30;;
73296;SDS011;61524;50.938;11.396;2023-11-19T04:59:14;0.45;;;0.30;;
73296;SDS011;61524;50.938;11.396;2023-11-19T05:01:40;0.40;;;0.27;;
73296;SDS011;61524;50.938;11.396;2023-11-19T05:04:06;2.80;;;0.40;;
73296;SDS011;61524;50.938;11.396;2023-11-19T05:06:32;0.30;;;0.30;;
73296;SDS011;61524;50.938;11.396;2023-11-19T05:08:58;0.90;;;0.60;;
73296;SDS011;61524;50.938;11.396;2023-11-19T05:11:26;0.70;;;0.32;;
73296;SDS011;61524;50.938;11.396;2023-11-19T05:13:53;0.32;;;0.32;;
73296;SDS011;61524;50.938;11.396;2023-11-19T05:16:18;0.50;;;0.30;;
73296;SDS011;61524;50.938;11.396;2023-11-19T05:18:44;0.03;;;0.03;;
73296;SDS011;61524;50.938;11.396;2023-11-19T05:21:10;0.35;;;0.30;;
73296;SDS011;61524;50.938;11.396;2023-11-19T05:23:35;0.30;;;0.15;;
73296;SDS011;61524;50.938;11.396;2023-11-19T05:26:03;0.30;;;0.30;;
73296;SDS011;61524;50.938;11.396;2023-11-19T05:28:29;0.10;;;0.10;;
73296;SDS011;61524;50.938;11.396;2023-11-19T05:30:54;0.67;;;0.50;;
73296;SDS011;61524;50.938;11.396;2023-11-19T05:33:20;1.17;;;0.40;;
73296;SDS011;61524;50.938;11.396;2023-11-19T05:35:45;0.60;;;0.30;;
73296;SDS011;61524;50.938;11.396;2023-11-19T05:38:11;0.28;;;0.28;;
73296;SDS011;61524;50.938;11.396;2023-11-19T05:40:36;0.20;;;0.20;;
73296;SDS011;61524;50.938;11.396;2023-11-19T05:43:03;0.55;;;0.38;;
73296;SDS011;61524;50.938;11.396;2023-11-19T05:45:29;0.35;;;0.30;;
73296;SDS011;61524;50.938;11.396;2023-11-19T05:47:54;0.50;;;0.30;;
73296;SDS011;61524;50.938;11.396;2023-11-19T05:50:19;0.67;;;0.30;;
73296;SDS011;61524;50.938;11.396;2023-11-19T05:52:45;1.00;;;0.50;;
73296;SDS011;61524;50.938;11.396;2023-11-19T05:55:10;0.30;;;0.20;;
73296;SDS011;61524;50.938;11.396;2023-11-19T05:57:36;0.35;;;0.30;;
73296;SDS011;61524;50.938;11.396;2023-11-19T06:00:02;2.47;;;0.30;;
73296;SDS011;61524;50.938;11.396;2023-11-19T06:02:32;0.60;;;0.47;;
73296;SDS011;61524;50.938;11.396;2023-11-19T06:04:57;0.35;;;0.35;;
73296;SDS011;61524;50.938;11.396;2023-11-19T06:07:23;1.70;;;0.50;;
73296;SDS011;61524;50.938;11.396;2023-11-19T06:09:48;0.17;;;0.13;;
73296;SDS011;61524;50.938;11.396;2023-11-19T06:12:13;0.90;;;0.30;;
73296;SDS011;61524;50.938;11.396;2023-11-19T06:14:39;0.77;;;0.35;;
73296;SDS011;61524;50.938;11.396;2023-11-19T06:17:05;0.30;;;0.30;;
73296;SDS011;61524;50.938;11.396;2023-11-19T06:19:30;0.45;;;0.40;;
73296;SDS011;61524;50.938;11.396;2023-11-19T06:21:55;0.95;;;0.38;;
73296;SDS011;61524;50.938;11.396;2023-11-19T06:24:21;0.67;;;0.30;;
73296;SDS011;61524;50.938;11.396;2023-11-19T06:26:46;1.07;;;0.47;;
73296;SDS011;61524;50.938;11.396;2023-11-19T06:29:11;0.70;;;0.40;;
73296;SDS011;61524;50.938;11.396;2023-11-19T06:31:36;0.47;;;0.47;;
73296;SDS011;61524;50.938;11.396;2023-11-19T06:34:05;0.38;;;0.38;;
73296;SDS011;61524;50.938;11.396;2023-11-19T06:36:30;0.87;;;0.50;;
73296;SDS011;61524;50.938;11.396;2023-11-19T06:38:55;0.70;;;0.43;;
73296;SDS011;61524;50.938;11.396;2023-11-19T06:41:21;0.85;;;0.47;;
73296;SDS011;61524;50.938;11.396;2023-11-19T06:43:46;1.35;;;0.43;;
73296;SDS011;61524;50.938;11.396;2023-11-19T06:46:18;1.70;;;0.50;;
73296;SDS011;61524;50.938;11.396;2023-11-19T06:48:43;0.98;;;0.63;;
73296;SDS011;61524;50.938;11.396;2023-11-19T06:51:09;1.45;;;0.80;;
73296;SDS011;61524;50.938;11.396;2023-11-19T06:53:34;1.90;;;0.40;;
73296;SDS011;61524;50.938;11.396;2023-11-19T06:56:01;1.15;;;0.50;;
73296;SDS011;61524;50.938;11.396;2023-11-19T06:58:26;1.35;;;0.60;;
73296;SDS011;61524;50.938;11.396;2023-11-19T07:00:51;0.80;;;0.50;;
73296;SDS011;61524;50.938;11.396;2023-11-19T07:03:16;3.13;;;1.03;;
73296;SDS011;61524;50.938;11.396;2023-11-19T07:05:42;1.40;;;0.70;;
73296;SDS011;61524;50.938;11.396;2023-11-19T07:08:08;0.82;;;0.40;;
73296;SDS011;61524;50.938;11.396;2023-11-19T07:10:34;1.13;;;0.50;;
73296;SDS011;61524;50.938;11.396;2023-11-19T07:12:59;0.57;;;0.37;;
73296;SDS011;61524;50.938;11.396;2023-11-19T07:15:25;1.42;;;0.55;;
73296;SDS011;61524;50.938;11.396;2023-11-19T07:17:50;3.30;;;0.65;;
73296;SDS011;61524;50.938;11.396;2023-11-19T07:20:16;1.95;;;0.80;;
73296;SDS011;61524;50.938;11.396;2023-11-19T07:22:44;0.65;;;0.43;;
73296;SDS011;61524;50.938;11.396;2023-11-19T07:25:15;0.57;;;0.45;;
73296;SDS011;61524;50.938;11.396;2023-11-19T07:27:40;4.40;;;0.73;;
73296;SDS011;61524;50.938;11.396;2023-11-19T07:30:06;1.30;;;0.60;;
73296;SDS011;61524;50.938;11.396;2023-11-19T07:32:32;2.75;;;0.80;;
73296;SDS011;61524;50.938;11.396;2023-11-19T07:34:57;4.25;;;1.20;;
73296;SDS011;61524;50.938;11.396;2023-11-19T07:37:23;3.03;;;0.70;;
73296;SDS011;61524;50.938;11.396;2023-11-19T07:39:48;2.37;;;0.90;;
73296;SDS011;61524;50.938;11.396;2023-11-19T07:42:13;2.07;;;0.70;;
73296;SDS011;61524;50.938;11.396;2023-11-19T07:44:38;3.47;;;0.50;;
73296;SDS011;61524;50.938;11.396;2023-11-19T07:47:04;2.10;;;0.83;;
73296;SDS011;61524;50.938;11.396;2023-11-19T07:49:29;4.97;;;0.77;;
73296;SDS011;61524;50.938;11.396;2023-11-19T07:51:56;4.07;;;0.90;;
73296;SDS011;61524;50.938;11.396;2023-11-19T07:54:21;1.40;;;0.70;;
73296;SDS011;61524;50.938;11.396;2023-11-19T07:56:46;3.92;;;0.63;;
73296;SDS011;61524;50.938;11.396;2023-11-19T07:59:12;1.35;;;0.80;;
73296;SDS011;61524;50.938;11.396;2023-11-19T08:01:37;2.25;;;1.10;;
73296;SDS011;61524;50.938;11.396;2023-11-19T08:04:02;3.43;;;0.97;;
73296;SDS011;61524;50.938;11.396;2023-11-19T08:06:27;3.67;;;1.80;;
73296;SDS011;61524;50.938;11.396;2023-11-19T08:08:53;2.83;;;1.60;;
73296;SDS011;61524;50.938;11.396;2023-11-19T08:11:18;2.20;;;0.90;;
73296;SDS011;61524;50.938;11.396;2023-11-19T08:13:44;1.90;;;0.80;;
73296;SDS011;61524;50.938;11.396;2023-11-19T08:16:10;1.15;;;0.68;;
73296;SDS011;61524;50.938;11.396;2023-11-19T08:18:35;1.35;;;0.63;;
73296;SDS011;61524;50.938;11.396;2023-11-19T08:21:01;4.10;;;1.73;;
73296;SDS011;61524;50.938;11.396;2023-11-19T08:23:26;2.15;;;0.98;;
73296;SDS011;61524;50.938;11.396;2023-11-19T08:25:53;1.05;;;0.52;;
73296;SDS011;61524;50.938;11.396;2023-11-19T08:28:19;1.83;;;0.88;;
73296;SDS011;61524;50.938;11.396;2023-11-19T08:30:44;1.15;;;0.70;;
73296;SDS011;61524;50.938;11.396;2023-11-19T08:33:09;2.33;;;0.70;;
73296;SDS011;61524;50.938;11.396;2023-11-19T08:35:35;3.25;;;0.60;;
73296;SDS011;61524;50.938;11.396;2023-11-19T08:38:00;3.22;;;0.90;;
73296;SDS011;61524;50.938;11.396;2023-11-19T08:40:26;5.15;;;1.00;;
73296;SDS011;61524;50.938;11.396;2023-11-19T08:42:52;0.68;;;0.45;;
73296;SDS011;61524;50.938;11.396;2023-11-19T08:45:17;1.37;;;0.73;;
73296;SDS011;61524;50.938;11.396;2023-11-19T08:47:42;1.50;;;0.60;;
73296;SDS011;61524;50.938;11.396;2023-11-19T08:50:08;0.82;;;0.50;;
73296;SDS011;61524;50.938;11.396;2023-11-19T08:52:33;2.67;;;0.52;;
73296;SDS011;61524;50.938;11.396;2023-11-19T08:54:59;2.22;;;0.63;;
73296;SDS011;61524;50.938;11.396;2023-11-19T08:57:24;3.93;;;1.20;;
73296;SDS011;61524;50.938;11.396;2023-11-19T08:59:50;1.87;;;0.70;;
73296;SDS011;61524;50.938;11.396;2023-11-19T09:02:15;1.42;;;0.70;;
73296;SDS011;61524;50.938;11.396;2023-11-19T09:04:41;3.85;;;0.70;;
73296;SDS011;61524;50.938;11.396;2023-11-19T09:07:06;1.03;;;0.50;;
73296;SDS011;61524;50.938;11.396;2023-11-19T09:09:34;3.17;;;0.63;;
73296;SDS011;61524;50.938;11.396;2023-11-19T09:12:01;2.60;;;0.85;;
73296;SDS011;61524;50.938;11.396;2023-11-19T09:14:26;1.10;;;0.60;;
73296;SDS011;61524;50.938;11.396;2023-11-19T09:16:51;1.42;;;0.77;;
73296;SDS011;61524;50.938;11.396;2023-11-19T09:19:17;2.78;;;0.80;;
73296;SDS011;61524;50.938;11.396;2023-11-19T09:21:43;2.22;;;1.20;;
73296;SDS011;61524;50.938;11.396;2023-11-19T09:24:08;2.78;;;0.90;;
73296;SDS011;61524;50.938;11.396;2023-11-19T09:26:33;4.32;;;1.50;;
73296;SDS011;61524;50.938;11.396;2023-11-19T09:28:59;4.88;;;1.13;;
73296;SDS011;61524;50.938;11.396;2023-11-19T09:31:24;3.45;;;1.17;;
73296;SDS011;61524;50.938;11.396;2023-11-19T09:33:50;5.90;;;1.10;;
73296;SDS011;61524;50.938;11.396;2023-11-19T09:36:15;5.20;;;1.30;;
73296;SDS011;61524;50.938;11.396;2023-11-19T09:38:42;6.65;;;1.33;;
73296;SDS011;61524;50.938;11.396;2023-11-19T09:41:07;5.45;;;1.17;;
73296;SDS011;61524;50.938;11.396;2023-11-19T09:43:34;6.57;;;1.08;;
73296;SDS011;61524;50.938;11.396;2023-11-19T09:46:00;4.22;;;1.33;;
73296;SDS011;61524;50.938;11.396;2023-11-19T09:48:32;7.43;;;1.33;;
73296;SDS011;61524;50.938;11.396;2023-11-19T09:50:57;6.72;;;1.00;;
73296;SDS011;61524;50.938;11.396;2023-11-19T09:53:24;5.63;;;1.50;;
73296;SDS011;61524;50.938;11.396;2023-11-19T09:55:50;7.28;;;1.05;;
73296;SDS011;61524;50.938;11.396;2023-11-19T09:58:15;9.10;;;1.77;;
73296;SDS011;61524;50.938;11.396;2023-11-19T10:00:41;4.32;;;1.27;;
73296;SDS011;61524;50.938;11.396;2023-11-19T10:03:07;7.70;;;1.52;;
73296;SDS011;61524;50.938;11.396;2023-11-19T10:05:32;10.43;;;1.30;;
73296;SDS011;61524;50.938;11.396;2023-11-19T10:07:57;8.45;;;1.60;;
73296;SDS011;61524;50.938;11.396;2023-11-19T10:10:23;7.53;;;1.52;;
73296;SDS011;61524;50.938;11.396;2023-11-19T10:12:50;6.50;;;1.60;;
73296;SDS011;61524;50.938;11.396;2023-11-19T10:15:23;8.15;;;2.78;;
73296;SDS011;61524;50.938;11.396;2023-11-19T10:17:50;6.35;;;1.70;;
73296;SDS011;61524;50.938;11.396;2023-11-19T10:20:15;9.48;;;1.85;;
73296;SDS011;61524;50.938;11.396;2023-11-19T10:22:40;8.63;;;1.67;;
73296;SDS011;61524;50.938;11.396;2023-11-19T10:27:47;6.43;;;1.60;;
73296;SDS011;61524;50.938;11.396;2023-11-19T10:30:12;6.25;;;1.95;;
73296;SDS011;61524;50.938;11.396;2023-11-19T10:32:37;8.75;;;2.10;;
73296;SDS011;61524;50.938;11.396;2023-11-19T10:35:06;7.10;;;1.50;;
73296;SDS011;61524;50.938;11.396;2023-11-19T10:37:32;6.22;;;1.35;;
73296;SDS011;61524;50.938;11.396;2023-11-19T10:39:57;6.18;;;1.77;;
73296;SDS011;61524;50.938;11.396;2023-11-19T10:42:23;5.43;;;1.42;;
73296;SDS011;61524;50.938;11.396;2023-11-19T10:44:48;9.35;;;2.42;;
73296;SDS011;61524;50.938;11.396;2023-11-19T10:47:13;8.95;;;2.15;;
73296;SDS011;61524;50.938;11.396;2023-11-19T10:49:39;4.75;;;1.40;;
73296;SDS011;61524;50.938;11.396;2023-11-19T10:52:05;10.80;;;1.88;;
73296;SDS011;61524;50.938;11.396;2023-11-19T10:54:33;6.43;;;1.85;;
73296;SDS011;61524;50.938;11.396;2023-11-19T10:56:59;5.68;;;1.65;;
73296;SDS011;61524;50.938;11.396;2023-11-19T10:59:27;6.32;;;1.55;;
73296;SDS011;61524;50.938;11.396;2023-11-19T11:01:53;11.13;;;2.15;;
73296;SDS011;61524;50.938;11.396;2023-11-19T11:04:25;8.75;;;1.92;;
73296;SDS011;61524;50.938;11.396;2023-11-19T11:06:51;7.47;;;1.50;;
73296;SDS011;61524;50.938;11.396;2023-11-19T11:09:19;8.50;;;1.90;;
73296;SDS011;61524;50.938;11.396;2023-11-19T11:11:46;6.90;;;1.63;;
73296;SDS011;61524;50.938;11.396;2023-11-19T11:16:36;11.45;;;2.00;;
73296;SDS011;61524;50.938;11.396;2023-11-19T11:19:02;7.72;;;1.67;;
73296;SDS011;61524;50.938;11.396;2023-11-19T11:21:28;9.52;;;1.67;;
73296;SDS011;61524;50.938;11.396;2023-11-19T11:39:35;14.13;;;2.55;;
73296;SDS011;61524;50.938;11.396;2023-11-19T11:45:00;12.70;;;2.13;;
73296;SDS011;61524;50.938;11.396;2023-11-19T11:47:26;9.75;;;1.63;;
73296;SDS011;61524;50.938;11.396;2023-11-19T11:49:51;10.63;;;2.00;;
73296;SDS011;61524;50.938;11.396;2023-11-19T11:52:17;5.30;;;1.35;;
73296;SDS011;61524;50.938;11.396;2023-11-19T11:54:42;7.93;;;2.03;;
73296;SDS011;61524;50.938;11.396;2023-11-19T11:57:11;10.43;;;1.57;;
73296;SDS011;61524;50.938;11.396;2023-11-19T12:02:05;6.88;;;1.63;;
73296;SDS011;61524;50.938;11.396;2023-11-19T12:04:32;12.13;;;2.67;;
73296;SDS011;61524;50.938;11.396;2023-11-19T12:07:11;6.88;;;1.73;;
73296;SDS011;61524;50.938;11.396;2023-11-19T12:09:37;5.72;;;1.80;;
73296;SDS011;61524;50.938;11.396;2023-11-19T12:19:58;10.73;;;1.90;;
73296;SDS011;61524;50.938;11.396;2023-11-19T12:22:24;6.93;;;1.58;;
73296;SDS011;61524;50.938;11.396;2023-11-19T12:24:50;9.60;;;2.00;;
73296;SDS011;61524;50.938;11.396;2023-11-19T12:27:17;7.25;;;1.55;;
73296;SDS011;61524;50.938;11.396;2023-11-19T12:29:43;7.38;;;1.60;;
73296;SDS011;61524;50.938;11.396;2023-11-19T12:32:11;5.80;;;1.48;;
73296;SDS011;61524;50.938;11.396;2023-11-19T12:34:36;7.65;;;2.22;;
73296;SDS011;61524;50.938;11.396;2023-11-19T12:37:05;10.37;;;1.50;;
73296;SDS011;61524;50.938;11.396;2023-11-19T12:39:30;5.13;;;1.42;;
73296;SDS011;61524;50.938;11.396;2023-11-19T12:41:56;10.98;;;1.75;;
73296;SDS011;61524;50.938;11.396;2023-11-19T12:44:24;7.00;;;1.70;;
73296;SDS011;61524;50.938;11.396;2023-11-19T12:47:02;11.23;;;2.20;;
73296;SDS011;61524;50.938;11.396;2023-11-19T12:49:27;6.55;;;1.83;;
73296;SDS011;61524;50.938;11.396;2023-11-19T12:51:53;7.53;;;1.58;;
73296;SDS011;61524;50.938;11.396;2023-11-19T12:54:18;5.93;;;1.47;;
73296;SDS011;61524;50.938;11.396;2023-11-19T12:56:53;8.67;;;1.67;;
73296;SDS011;61524;50.938;11.396;2023-11-19T12:59:18;8.65;;;1.42;;
73296;SDS011;61524;50.938;11.396;2023-11-19T13:01:59;6.22;;;1.67;;
73296;SDS011;61524;50.938;11.396;2023-11-19T13:04:28;7.30;;;1.40;;
73296;SDS011;61524;50.938;11.396;2023-11-19T13:06:53;6.50;;;1.73;;
73296;SDS011;61524;50.938;11.396;2023-11-19T13:09:22;9.97;;;1.80;;
73296;SDS011;61524;50.938;11.396;2023-11-19T13:11:49;4.55;;;1.40;;
73296;SDS011;61524;50.938;11.396;2023-11-19T13:14:15;7.15;;;1.65;;
73296;SDS011;61524;50.938;11.396;2023-11-19T13:16:40;7.00;;;1.73;;
73296;SDS011;61524;50.938;11.396;2023-11-19T13:19:07;6.47;;;1.25;;
73296;SDS011;61524;50.938;11.396;2023-11-19T13:21:33;8.40;;;2.10;;
73296;SDS011;61524;50.938;11.396;2023-11-19T13:23:59;8.43;;;2.33;;
73296;SDS011;61524;50.938;11.396;2023-11-19T13:26:24;11.90;;;3.13;;
73296;SDS011;61524;50.938;11.396;2023-11-19T13:28:49;8.10;;;2.27;;
73296;SDS011;61524;50.938;11.396;2023-11-19T13:31:14;12.47;;;2.33;;
73296;SDS011;61524;50.938;11.396;2023-11-19T13:33:40;9.02;;;2.28;;
73296;SDS011;61524;50.938;11.396;2023-11-19T13:36:06;12.65;;;2.28;;
73296;SDS011;61524;50.938;11.396;2023-11-19T13:38:32;6.40;;;1.52;;
73296;SDS011;61524;50.938;11.396;2023-11-19T13:40:58;6.03;;;1.65;;
73296;SDS011;61524;50.938;11.396;2023-11-19T13:43:24;9.75;;;2.10;;
73296;SDS011;61524;50.938;11.396;2023-11-19T13:45:50;6.13;;;1.70;;
73296;SDS011;61524;50.938;11.396;2023-11-19T13:48:15;8.60;;;2.20;;
73296;SDS011;61524;50.938;11.396;2023-11-19T13:50:41;11.90;;;2.28;;
73296;SDS011;61524;50.938;11.396;2023-11-19T13:53:07;9.50;;;1.77;;
73296;SDS011;61524;50.938;11.396;2023-11-19T13:55:33;10.20;;;1.75;;
73296;SDS011;61524;50.938;11.396;2023-11-19T13:57:58;13.07;;;2.00;;
73296;SDS011;61524;50.938;11.396;2023-11-19T14:00:23;6.17;;;1.50;;
73296;SDS011;61524;50.938;11.396;2023-11-19T14:02:49;8.45;;;1.60;;
73296;SDS011;61524;50.938;11.396;2023-11-19T14:05:14;11.63;;;1.70;;
73296;SDS011;61524;50.938;11.396;2023-11-19T14:07:42;9.15;;;2.00;;
73296;SDS011;61524;50.938;11.396;2023-11-19T14:10:08;13.88;;;2.45;;
73296;SDS011;61524;50.938;11.396;2023-11-19T14:12:34;12.48;;;2.10;;
73296;SDS011;61524;50.938;11.396;2023-11-19T14:15:00;10.15;;;2.08;;
73296;SDS011;61524;50.938;11.396;2023-11-19T14:17:26;8.10;;;1.97;;
73296;SDS011;61524;50.938;11.396;2023-11-19T14:19:51;10.35;;;2.65;;
73296;SDS011;61524;50.938;11.396;2023-11-19T14:22:17;7.65;;;1.50;;
73296;SDS011;61524;50.938;11.396;2023-11-19T14:24:42;5.20;;;1.40;;
73296;SDS011;61524;50.938;11.396;2023-11-19T14:27:08;12.43;;;1.80;;
73296;SDS011;61524;50.938;11.396;2023-11-19T14:29:33;5.53;;;1.67;;
73296;SDS011;61524;50.938;11.396;2023-11-19T14:32:00;8.98;;;2.05;;
73296;SDS011;61524;50.938;11.396;2023-11-19T14:34:25;9.65;;;1.25;;
73296;SDS011;61524;50.938;11.396;2023-11-19T14:36:51;9.30;;;1.98;;
73296;SDS011;61524;50.938;11.396;2023-11-19T14:39:16;12.60;;;2.25;;
73296;SDS011;61524;50.938;11.396;2023-11-19T14:41:44;5.10;;;1.50;;
73296;SDS011;61524;50.938;11.396;2023-11-19T14:44:10;8.57;;;1.30;;
73296;SDS011;61524;50.938;11.396;2023-11-19T14:46:35;8.80;;;1.40;;
73296;SDS011;61524;50.938;11.396;2023-11-19T14:49:01;7.55;;;1.67;;
73296;SDS011;61524;50.938;11.396;2023-11-19T14:51:26;7.45;;;2.15;;
73296;SDS011;61524;50.938;11.396;2023-11-19T14:53:51;11.93;;;2.20;;
73296;SDS011;61524;50.938;11.396;2023-11-19T14:56:17;10.55;;;1.75;;
73296;SDS011;61524;50.938;11.396;2023-11-19T14:58:42;8.68;;;1.90;;
73296;SDS011;61524;50.938;11.396;2023-11-19T15:03:35;10.70;;;1.48;;